Time;durP1;ratioP1;P1;durP2;ratioP2;P2;SDS_P1;SDS_P2;PMS_P1;PMS_P2;Temp;Humidity;BMP_temperature;BMP_pressure;BME280_temperature;BME280_humidity;BME280_pressure;Samples;Min_cycle;Max_cycle;Signal;HPM_P1;HPM_P2
2023/10/28 00:00:55;;;;;;;29.83;18.27;;;12.70;67.60;;;;;;5070503;28;20572;-83
2023/10/28 00:03:21;;;;;;;23.00;18.20;;;12.70;67.80;;;;;;5072411;28;20169;-83
2023/10/28 00:05:47;;;;;;;22.23;17.07;;;12.70;67.80;;;;;;5071816;28;20240;-83
2023/10/28 00:08:13;;;;;;;21.70;16.93;;;12.70;67.90;;;;;;5073110;28;20220;-83
2023/10/28 00:10:40;;;;;;;21.80;16.90;;;12.70;67.50;;;;;;5070319;28;20184;-83
2023/10/28 00:13:07;;;;;;;22.87;17.43;;;12.70;67.60;;;;;;5065864;28;20621;-83
2023/10/28 00:15:32;;;;;;;22.27;17.90;;;12.80;67.70;;;;;;5071260;28;20189;-83
2023/10/28 00:17:58;;;;;;;25.23;18.30;;;12.80;67.30;;;;;;5070842;28;20186;-83
2023/10/28 00:20:24;;;;;;;23.73;19.23;;;12.80;67.20;;;;;;5074603;28;20169;-83
2023/10/28 00:22:53;;;;;;;25.53;19.83;;;12.70;67.10;;;;;;5069016;28;20233;-83
2023/10/28 00:25:22;;;;;;;26.80;18.13;;;12.80;67.00;;;;;;5071747;28;20184;-83
2023/10/28 00:27:48;;;;;;;29.50;20.23;;;12.70;67.20;;;;;;5070250;28;20188;-83
2023/10/28 00:30:14;;;;;;;27.30;22.53;;;12.70;67.20;;;;;;5069499;28;20182;-83
2023/10/28 00:32:41;;;;;;;29.80;23.00;;;12.70;66.70;;;;;;5070886;28;20169;-83
2023/10/28 00:35:08;;;;;;;26.90;21.70;;;12.70;66.60;;;;;;5087539;28;20192;-83
2023/10/28 00:37:37;;;;;;;28.37;23.60;;;12.60;66.70;;;;;;5071462;28;20177;-83
2023/10/28 00:40:05;;;;;;;29.67;25.77;;;12.70;66.90;;;;;;5071003;28;20527;-83
2023/10/28 00:42:35;;;;;;;27.17;22.63;;;12.60;66.40;;;;;;5068670;28;20629;-83
2023/10/28 00:45:02;;;;;;;18.50;16.20;;;12.60;66.60;;;;;;5070013;28;20237;-83
2023/10/28 00:47:28;;;;;;;20.00;16.83;;;12.60;65.70;;;;;;5072692;28;20260;-83
2023/10/28 00:49:54;;;;;;;21.43;15.63;;;12.70;65.80;;;;;;5071493;28;20240;-83
2023/10/28 00:52:21;;;;;;;16.93;15.13;;;12.50;65.60;;;;;;5069116;28;20594;-83
2023/10/28 00:54:48;;;;;;;16.57;14.30;;;12.40;65.30;;;;;;5071058;28;20199;-83
2023/10/28 00:57:17;;;;;;;14.63;13.07;;;12.40;65.40;;;;;;5067966;28;20665;-83
2023/10/28 00:59:43;;;;;;;14.13;12.63;;;12.40;65.30;;;;;;5072036;28;20177;-83
2023/10/28 01:02:10;;;;;;;15.60;12.80;;;12.50;65.50;;;;;;5071727;28;20292;-83
2023/10/28 01:04:36;;;;;;;13.63;12.20;;;12.50;65.80;;;;;;5070042;28;20644;-83
2023/10/28 01:07:02;;;;;;;12.47;11.17;;;12.50;65.00;;;;;;5068759;28;20200;-83
2023/10/28 01:09:28;;;;;;;14.10;11.53;;;12.60;65.00;;;;;;5068496;28;20240;-83
2023/10/28 01:11:54;;;;;;;12.20;11.00;;;12.50;63.90;;;;;;5085114;28;20184;-83
2023/10/28 01:14:20;;;;;;;13.27;10.47;;;12.50;63.90;;;;;;5075551;28;20169;-83
2023/10/28 01:16:46;;;;;;;10.83;9.73;;;12.50;64.00;;;;;;5069225;28;20246;-83
2023/10/28 01:19:11;;;;;;;12.60;10.53;;;12.40;63.30;;;;;;5067478;28;20176;-82
2023/10/28 01:21:40;;;;;;;12.97;11.23;;;12.40;64.00;;;;;;5069348;28;20196;-82
2023/10/28 01:24:07;;;;;;;12.47;11.13;;;12.50;64.20;;;;;;5069014;28;20633;-83
2023/10/28 01:26:33;;;;;;;12.53;10.63;;;12.50;63.60;;;;;;5072465;28;20196;-83
2023/10/28 01:29:00;;;;;;;10.93;8.93;;;12.50;63.30;;;;;;5086914;28;20204;-83
2023/10/28 01:31:26;;;;;;;8.50;7.23;;;12.40;63.00;;;;;;5070520;28;20176;-82
2023/10/28 01:33:52;;;;;;;7.80;7.00;;;12.30;62.00;;;;;;5069395;28;20187;-83
2023/10/28 01:36:18;;;;;;;7.20;5.90;;;12.20;61.90;;;;;;5070840;28;20177;-83
2023/10/28 01:38:43;;;;;;;6.37;5.77;;;12.10;61.50;;;;;;5070017;28;20169;-82
2023/10/28 01:44:34;;;;;;;6.33;5.73;;;12.10;61.60;;;;;;5067310;28;20215;-82
2023/10/28 01:47:00;;;;;;;6.20;5.60;;;12.10;61.80;;;;;;5070606;28;20177;-83
2023/10/28 01:49:26;;;;;;;6.50;5.90;;;12.10;61.70;;;;;;5068825;28;20208;-83
2023/10/28 01:51:53;;;;;;;8.27;5.90;;;12.10;61.30;;;;;;5067521;28;20204;-82
2023/10/28 01:54:19;;;;;;;6.07;5.47;;;12.10;61.00;;;;;;5067565;28;20220;-82
2023/10/28 01:56:44;;;;;;;6.17;5.57;;;12.10;60.60;;;;;;5054867;28;20205;-83
2023/10/28 01:59:12;;;;;;;5.87;5.30;;;12.10;60.30;;;;;;5069534;28;20184;-83
2023/10/28 02:01:38;;;;;;;6.70;5.47;;;12.00;60.30;;;;;;5067333;28;20184;-83
2023/10/28 02:04:06;;;;;;;7.63;5.90;;;12.00;60.50;;;;;;5068280;28;20177;-83
2023/10/28 02:06:32;;;;;;;6.10;5.50;;;12.00;60.40;;;;;;5067500;28;20258;-83
2023/10/28 02:08:58;;;;;;;5.60;5.10;;;12.00;60.20;;;;;;5069501;28;20205;-83
2023/10/28 02:11:23;;;;;;;5.73;5.10;;;12.00;61.00;;;;;;5069732;28;20177;-83
2023/10/28 02:13:49;;;;;;;5.70;5.10;;;12.00;60.40;;;;;;5069337;28;20185;-83
2023/10/28 02:16:15;;;;;;;6.33;5.63;;;12.10;60.60;;;;;;5068663;28;20177;-82
2023/10/28 02:18:41;;;;;;;4.93;4.53;;;12.10;60.10;;;;;;5065845;28;20543;-83
2023/10/28 02:21:06;;;;;;;6.50;5.57;;;12.00;59.80;;;;;;5070132;28;20180;-83
2023/10/28 02:23:32;;;;;;;6.07;4.00;;;12.00;60.10;;;;;;5067393;28;20177;-83
2023/10/28 02:25:58;;;;;;;5.93;4.53;;;12.00;60.00;;;;;;5065202;28;20196;-83
2023/10/28 02:28:24;;;;;;;4.73;4.33;;;12.00;59.90;;;;;;5066642;28;20287;-83
2023/10/28 02:30:50;;;;;;;4.47;4.07;;;12.00;59.30;;;;;;5069881;28;20181;-83
2023/10/28 02:33:15;;;;;;;5.30;4.77;;;11.90;59.30;;;;;;5068761;28;20176;-83
2023/10/28 02:35:41;;;;;;;6.17;4.70;;;11.90;59.60;;;;;;5070344;28;20176;-83
2023/10/28 02:38:06;;;;;;;4.53;4.10;;;11.90;59.40;;;;;;5067462;28;20169;-82
2023/10/28 02:40:32;;;;;;;4.87;4.43;;;11.80;58.70;;;;;;5060832;28;20502;-82
2023/10/28 02:42:57;;;;;;;4.50;4.10;;;11.80;59.20;;;;;;5060332;28;20177;-83
2023/10/28 02:45:23;;;;;;;6.20;4.60;;;11.90;59.50;;;;;;5066735;28;20712;-83
2023/10/28 02:47:49;;;;;;;6.30;4.40;;;11.90;59.20;;;;;;5070083;28;20173;-83
2023/10/28 02:50:16;;;;;;;4.87;4.47;;;11.90;59.20;;;;;;5070221;28;20165;-83
2023/10/28 02:52:42;;;;;;;6.47;4.80;;;11.90;58.80;;;;;;5069394;28;20529;-82
2023/10/28 02:55:08;;;;;;;5.00;4.50;;;11.90;59.20;;;;;;5062826;28;20193;-83
2023/10/28 02:57:33;;;;;;;5.73;4.40;;;11.90;59.10;;;;;;5056727;28;20686;-83
2023/10/28 02:59:59;;;;;;;5.50;4.50;;;11.90;59.10;;;;;;5067143;28;20169;-82
2023/10/28 03:02:25;;;;;;;4.53;4.13;;;11.80;58.80;;;;;;5065792;28;20177;-83
2023/10/28 03:04:51;;;;;;;4.27;3.87;;;11.80;58.80;;;;;;5068794;28;20545;-83
2023/10/28 03:07:17;;;;;;;4.07;3.67;;;11.80;58.90;;;;;;5064612;28;20179;-82
2023/10/28 03:09:42;;;;;;;4.27;3.87;;;11.80;58.50;;;;;;5069178;28;20291;-83
2023/10/28 03:12:08;;;;;;;5.23;4.17;;;11.80;58.40;;;;;;5068126;28;20633;-83
2023/10/28 03:14:34;;;;;;;5.73;3.83;;;11.80;58.30;;;;;;5069907;28;20180;-82
2023/10/28 03:16:59;;;;;;;4.23;3.83;;;11.80;58.30;;;;;;5070090;28;20668;-83
2023/10/28 03:19:25;;;;;;;4.20;3.70;;;11.90;58.40;;;;;;5066468;28;20512;-83
2023/10/28 03:21:50;;;;;;;5.37;3.90;;;11.80;58.40;;;;;;5070213;28;20234;-83
2023/10/28 03:24:16;;;;;;;4.57;4.17;;;11.80;58.40;;;;;;5067730;28;20174;-83
2023/10/28 03:26:42;;;;;;;4.47;4.07;;;11.80;58.40;;;;;;5055652;28;20170;-83
2023/10/28 03:29:07;;;;;;;4.83;4.27;;;11.70;58.20;;;;;;5068667;28;20215;-82
2023/10/28 03:31:33;;;;;;;5.23;4.13;;;11.80;58.60;;;;;;5071696;28;20271;-83
2023/10/28 03:33:59;;;;;;;5.17;4.07;;;11.80;58.50;;;;;;5072636;28;20183;-83
2023/10/28 03:36:31;;;;;;;5.33;4.70;;;11.80;58.30;;;;;;5069960;28;20201;-83
2023/10/28 03:38:56;;;;;;;7.17;4.00;;;11.80;58.40;;;;;;5072756;28;20577;-83
2023/10/28 03:41:22;;;;;;;5.03;4.53;;;11.80;58.20;;;;;;5074378;28;20258;-83
2023/10/28 03:43:48;;;;;;;7.27;6.40;;;11.70;58.20;;;;;;5070988;28;20276;-83
2023/10/28 03:46:18;;;;;;;8.97;8.17;;;11.70;58.20;;;;;;5071080;28;20275;-83
2023/10/28 03:48:44;;;;;;;9.60;8.57;;;11.60;58.00;;;;;;5072037;28;20215;-82
2023/10/28 03:51:09;;;;;;;7.10;6.37;;;11.50;58.20;;;;;;5072016;28;20585;-83
2023/10/28 03:53:35;;;;;;;6.93;6.23;;;11.50;58.40;;;;;;5074877;28;20257;-82
2023/10/28 03:56:00;;;;;;;6.30;5.70;;;11.50;58.30;;;;;;5069170;28;20188;-82
2023/10/28 03:58:26;;;;;;;6.03;5.43;;;11.50;58.40;;;;;;5069468;28;20710;-83
2023/10/28 04:00:56;;;;;;;7.47;5.40;;;11.50;58.30;;;;;;5068350;28;20256;-83
2023/10/28 04:03:23;;;;;;;6.20;5.37;;;11.50;58.60;;;;;;5072167;28;20199;-82
2023/10/28 04:05:49;;;;;;;5.23;4.70;;;11.60;58.80;;;;;;5072655;28;20541;-83
2023/10/28 04:08:15;;;;;;;5.30;4.80;;;11.60;58.70;;;;;;5070335;28;20208;-83
2023/10/28 04:10:41;;;;;;;6.30;5.00;;;11.60;58.40;;;;;;5069156;28;20177;-84
2023/10/28 04:13:07;;;;;;;6.30;5.20;;;11.60;58.40;;;;;;5081384;28;20180;-84
2023/10/28 04:15:32;;;;;;;7.47;6.73;;;11.70;58.70;;;;;;5084281;28;20187;-84
2023/10/28 04:17:58;;;;;;;7.70;7.00;;;11.70;58.60;;;;;;5078403;28;20177;-84
2023/10/28 04:20:24;;;;;;;9.30;7.27;;;11.60;58.00;;;;;;5075809;28;20184;-84
2023/10/28 04:22:50;;;;;;;7.97;7.17;;;11.60;58.40;;;;;;5075308;28;20177;-83
2023/10/28 04:25:15;;;;;;;7.20;6.40;;;11.70;58.60;;;;;;5073084;28;20177;-83
2023/10/28 04:27:41;;;;;;;7.87;6.37;;;11.70;58.20;;;;;;5073804;28;20180;-83
2023/10/28 04:30:10;;;;;;;6.77;6.13;;;11.70;58.40;;;;;;5072463;28;20210;-83
2023/10/28 04:32:37;;;;;;;6.73;6.03;;;11.60;58.20;;;;;;5067983;28;20193;-82
2023/10/28 04:35:02;;;;;;;7.00;6.30;;;11.70;58.60;;;;;;5064080;28;20188;-83
2023/10/28 04:37:28;;;;;;;8.07;6.17;;;11.70;58.50;;;;;;5071317;28;20185;-83
2023/10/28 04:39:54;;;;;;;7.40;6.37;;;11.70;58.20;;;;;;5071332;28;20173;-83
2023/10/28 04:42:19;;;;;;;6.60;5.93;;;11.60;58.40;;;;;;5069188;28;20531;-82
2023/10/28 04:44:45;;;;;;;7.20;6.17;;;11.60;58.50;;;;;;5073262;28;20213;-82
2023/10/28 04:47:11;;;;;;;7.50;6.10;;;11.60;58.60;;;;;;5068803;28;20708;-83
2023/10/28 04:49:39;;;;;;;6.97;6.27;;;11.60;58.80;;;;;;5071410;28;20680;-83
2023/10/28 04:52:08;;;;;;;6.77;6.00;;;11.60;58.90;;;;;;5069754;28;20303;-83
2023/10/28 04:54:38;;;;;;;6.90;5.97;;;11.60;58.60;;;;;;5069230;28;20641;-83
2023/10/28 04:57:04;;;;;;;6.73;6.07;;;11.60;58.70;;;;;;5072270;28;20207;-83
2023/10/28 04:59:30;;;;;;;7.07;6.37;;;11.70;58.80;;;;;;5072305;28;20185;-83
2023/10/28 05:01:56;;;;;;;6.77;6.10;;;11.60;58.60;;;;;;5071384;28;20189;-83
2023/10/28 05:04:24;;;;;;;8.77;6.17;;;11.60;58.90;;;;;;5071095;28;20621;-83
2023/10/28 05:06:50;;;;;;;8.53;6.53;;;11.60;59.10;;;;;;5071197;28;20196;-83
2023/10/28 05:09:16;;;;;;;7.13;5.63;;;11.70;59.20;;;;;;5069949;28;20205;-83
2023/10/28 05:11:42;;;;;;;6.67;5.90;;;11.70;59.00;;;;;;5072387;28;20169;-83
2023/10/28 05:14:10;;;;;;;6.70;6.10;;;11.70;58.60;;;;;;5073239;28;20531;-83
2023/10/28 05:16:36;;;;;;;6.47;5.73;;;11.70;58.50;;;;;;5071905;28;20176;-83
2023/10/28 05:19:02;;;;;;;8.87;6.20;;;11.60;58.80;;;;;;5069353;28;20208;-83
2023/10/28 05:21:28;;;;;;;7.10;5.73;;;11.60;59.00;;;;;;5069868;28;20197;-83
2023/10/28 05:23:54;;;;;;;6.27;5.60;;;11.60;59.00;;;;;;5072544;28;20226;-82
2023/10/28 05:26:19;;;;;;;6.70;5.77;;;11.70;59.00;;;;;;5071144;28;20169;-83
2023/10/28 05:28:46;;;;;;;9.13;5.93;;;11.70;59.20;;;;;;5071322;28;20207;-83
2023/10/28 05:31:14;;;;;;;7.37;5.93;;;11.70;58.90;;;;;;5068648;28;20641;-83
2023/10/28 05:33:39;;;;;;;6.97;6.10;;;11.70;58.90;;;;;;5071419;28;20634;-83
2023/10/28 05:36:06;;;;;;;7.80;6.03;;;11.80;59.20;;;;;;5070011;28;20227;-83
2023/10/28 05:38:31;;;;;;;8.23;6.53;;;11.60;58.60;;;;;;5070384;28;20209;-82
2023/10/28 05:40:57;;;;;;;9.37;7.17;;;11.60;58.80;;;;;;5070972;28;20238;-82
2023/10/28 05:43:23;;;;;;;7.40;6.57;;;11.50;58.80;;;;;;5069669;28;20177;-82
2023/10/28 05:45:48;;;;;;;7.87;6.53;;;11.50;59.10;;;;;;5068724;28;20221;-82
2023/10/28 05:48:14;;;;;;;10.97;7.90;;;11.60;59.30;;;;;;5069076;28;20227;-82
2023/10/28 05:50:39;;;;;;;8.17;7.13;;;11.70;59.30;;;;;;5070335;28;20691;-83
2023/10/28 05:53:05;;;;;;;7.23;6.53;;;11.70;59.20;;;;;;5070021;28;20177;-83
2023/10/28 05:55:31;;;;;;;7.40;6.50;;;11.70;58.60;;;;;;5067409;28;20216;-83
2023/10/28 05:57:57;;;;;;;7.20;6.07;;;11.70;58.70;;;;;;5067401;28;20230;-83
2023/10/28 06:00:23;;;;;;;6.43;5.77;;;11.70;59.00;;;;;;5067851;28;20267;-82
2023/10/28 06:02:49;;;;;;;9.37;5.97;;;11.70;58.80;;;;;;5070688;28;20181;-82
2023/10/28 06:05:15;;;;;;;6.30;5.70;;;11.70;58.80;;;;;;5068388;28;20183;-82
2023/10/28 06:07:47;;;;;;;8.17;6.63;;;11.70;58.60;;;;;;5067456;28;20538;-82
2023/10/28 06:10:13;;;;;;;6.10;5.43;;;11.80;58.70;;;;;;5066889;28;20192;-83
2023/10/28 06:12:39;;;;;;;7.57;6.40;;;11.70;58.60;;;;;;5068817;28;20178;-82
2023/10/28 06:15:05;;;;;;;7.23;6.20;;;11.80;58.90;;;;;;5069087;28;20260;-82
2023/10/28 06:17:30;;;;;;;7.47;6.10;;;11.80;58.80;;;;;;5070503;28;20169;-82
2023/10/28 06:19:56;;;;;;;8.57;7.50;;;11.80;58.70;;;;;;5068537;28;20629;-83
2023/10/28 06:22:27;;;;;;;8.87;7.37;;;11.90;58.90;;;;;;5069289;28;20255;-82
2023/10/28 06:24:54;;;;;;;8.77;6.93;;;11.90;58.80;;;;;;5068693;28;20270;-82
2023/10/28 06:27:22;;;;;;;9.03;6.73;;;11.90;58.60;;;;;;5070370;28;20186;-82
2023/10/28 06:29:47;;;;;;;9.87;7.40;;;12.00;58.90;;;;;;5070639;28;20204;-82
2023/10/28 06:32:13;;;;;;;7.07;6.27;;;12.10;59.00;;;;;;5069080;28;20705;-82
2023/10/28 06:34:38;;;;;;;7.23;6.20;;;12.00;58.80;;;;;;5069812;28;20239;-82
2023/10/28 06:37:04;;;;;;;8.47;6.87;;;12.00;58.50;;;;;;5066891;28;20657;-82
2023/10/28 06:39:34;;;;;;;7.10;6.40;;;11.90;58.70;;;;;;5068009;28;20193;-82
2023/10/28 06:42:01;;;;;;;7.77;5.83;;;12.00;58.70;;;;;;5069944;28;20173;-81
2023/10/28 06:44:27;;;;;;;6.83;5.90;;;12.00;58.60;;;;;;5067401;28;20224;-82
2023/10/28 06:46:52;;;;;;;8.73;6.43;;;11.90;58.70;;;;;;5066615;28;20321;-82
2023/10/28 06:49:18;;;;;;;7.80;6.60;;;12.10;59.00;;;;;;5068295;28;20212;-82
2023/10/28 06:51:44;;;;;;;7.80;6.30;;;12.00;58.70;;;;;;5057622;28;20185;-82
2023/10/28 06:54:10;;;;;;;7.97;6.93;;;12.00;58.60;;;;;;5068441;28;20635;-82
2023/10/28 06:56:36;;;;;;;6.40;5.70;;;11.90;58.60;;;;;;5067759;28;20161;-82
2023/10/28 06:59:02;;;;;;;6.10;5.50;;;11.90;58.60;;;;;;5067955;28;20280;-82
2023/10/28 07:01:27;;;;;;;7.23;5.13;;;11.80;58.10;;;;;;5067201;28;20524;-81
2023/10/28 07:03:53;;;;;;;5.80;5.30;;;11.70;58.20;;;;;;5068161;28;20177;-82
2023/10/28 07:06:19;;;;;;;5.47;4.97;;;11.70;58.40;;;;;;5070877;28;20167;-82
2023/10/28 07:08:45;;;;;;;9.73;5.80;;;11.70;58.40;;;;;;5072140;28;20220;-83
2023/10/28 07:11:11;;;;;;;6.47;4.63;;;11.80;58.50;;;;;;5071490;28;20234;-82
2023/10/28 07:13:38;;;;;;;5.30;4.53;;;11.70;58.20;;;;;;5071686;28;20180;-81
2023/10/28 07:16:04;;;;;;;5.30;4.73;;;11.70;58.20;;;;;;5067594;28;20181;-82
2023/10/28 07:18:30;;;;;;;5.53;4.60;;;11.80;58.40;;;;;;5072366;28;20280;-82
2023/10/28 07:20:57;;;;;;;4.17;3.80;;;11.80;58.10;;;;;;5059859;28;20169;-82
2023/10/28 07:23:26;;;;;;;5.03;4.53;;;11.80;58.00;;;;;;5071795;28;20201;-82
2023/10/28 07:25:52;;;;;;;6.47;4.80;;;12.00;58.20;;;;;;5068124;28;20177;-81
2023/10/28 07:28:34;;;;;;;5.87;5.03;;;11.90;58.10;;;;;;5070752;28;20296;-82
2023/10/28 07:31:01;;;;;;;4.60;4.10;;;11.90;57.80;;;;;;5072688;28;20260;-82
2023/10/28 07:33:27;;;;;;;5.37;4.70;;;12.00;57.80;;;;;;5066943;28;20197;-82
2023/10/28 07:35:53;;;;;;;4.57;4.17;;;12.00;57.80;;;;;;5071002;28;20171;-82
2023/10/28 07:38:20;;;;;;;5.43;4.83;;;12.10;57.50;;;;;;5069145;28;20279;-81
2023/10/28 07:40:46;;;;;;;5.53;5.00;;;12.10;57.40;;;;;;5069886;28;20625;-82
2023/10/28 07:43:13;;;;;;;6.20;5.60;;;12.20;57.50;;;;;;5069645;28;20231;-81
2023/10/28 07:45:42;;;;;;;5.23;4.47;;;12.30;57.60;;;;;;5069097;28;20219;-83
2023/10/28 07:48:09;;;;;;;4.87;4.37;;;12.30;57.30;;;;;;5071071;28;20233;-82
2023/10/28 07:50:39;;;;;;;4.70;4.30;;;12.30;56.90;;;;;;5067960;28;20177;-85
2023/10/28 07:53:05;;;;;;;4.60;4.13;;;12.40;56.80;;;;;;5071045;28;20177;-84
2023/10/28 07:55:34;;;;;;;6.57;4.40;;;12.30;56.60;;;;;;5067939;28;20589;-84
2023/10/28 07:58:00;;;;;;;5.33;4.00;;;12.40;56.70;;;;;;5068609;28;20527;-82
2023/10/28 08:00:26;;;;;;;3.80;3.50;;;12.40;56.90;;;;;;5070198;28;20180;-82
2023/10/28 08:02:52;;;;;;;3.63;3.33;;;12.50;57.30;;;;;;5072020;28;20172;-82
2023/10/28 08:05:19;;;;;;;5.13;3.53;;;12.70;57.30;;;;;;5067231;28;20185;-81
2023/10/28 08:07:47;;;;;;;3.60;3.30;;;12.80;56.80;;;;;;5068084;28;20236;-83
2023/10/28 08:10:14;;;;;;;3.93;3.53;;;12.80;56.60;;;;;;5068193;28;20205;-82
2023/10/28 08:12:40;;;;;;;3.57;3.27;;;12.90;56.20;;;;;;5070384;28;20644;-82
2023/10/28 08:15:09;;;;;;;4.83;3.77;;;12.80;55.90;;;;;;5071926;28;20377;-82
2023/10/28 08:17:35;;;;;;;4.67;4.00;;;12.80;56.00;;;;;;5069613;28;20179;-83
2023/10/28 08:20:02;;;;;;;6.37;3.80;;;12.90;56.10;;;;;;5069354;28;20185;-82
2023/10/28 08:22:28;;;;;;;6.30;4.33;;;12.90;56.10;;;;;;5068697;28;20189;-82
2023/10/28 08:24:54;;;;;;;4.40;4.00;;;13.00;56.30;;;;;;5067708;28;20181;-82
2023/10/28 08:27:19;;;;;;;5.13;4.00;;;13.00;56.10;;;;;;5068621;28;20165;-82
2023/10/28 08:29:46;;;;;;;4.27;3.83;;;13.10;56.10;;;;;;5071443;28;20204;-82
2023/10/28 08:32:13;;;;;;;3.67;3.33;;;13.10;55.40;;;;;;5069247;28;20176;-82
2023/10/28 08:34:38;;;;;;;4.73;3.53;;;13.00;55.40;;;;;;5068981;28;20181;-82
2023/10/28 08:37:05;;;;;;;4.23;3.77;;;13.10;56.10;;;;;;5070705;28;20680;-82
2023/10/28 08:39:31;;;;;;;4.13;3.70;;;13.10;55.70;;;;;;5069441;28;20189;-82
2023/10/28 08:42:04;;;;;;;4.03;3.63;;;13.20;55.70;;;;;;5071637;28;20177;-82
2023/10/28 08:44:32;;;;;;;5.93;3.80;;;13.20;55.70;;;;;;5066697;28;20353;-82
2023/10/28 08:46:59;;;;;;;6.10;3.83;;;13.20;55.30;;;;;;5067945;28;20280;-82
2023/10/28 08:49:27;;;;;;;4.03;3.47;;;13.10;55.10;;;;;;5068191;28;20208;-82
2023/10/28 08:51:58;;;;;;;4.23;3.83;;;13.10;55.50;;;;;;5070970;28;20180;-83
2023/10/28 08:54:26;;;;;;;6.33;4.10;;;13.20;56.10;;;;;;5069661;28;20164;-82
2023/10/28 08:56:56;;;;;;;4.20;3.63;;;13.30;55.90;;;;;;5069042;28;20180;-82
2023/10/28 08:59:21;;;;;;;3.80;3.40;;;13.40;55.90;;;;;;5070104;28;20173;-82
2023/10/28 09:01:48;;;;;;;3.30;3.00;;;13.50;55.20;;;;;;5069023;28;20238;-83
2023/10/28 09:04:15;;;;;;;4.57;4.17;;;13.50;55.20;;;;;;5069526;28;20491;-82
2023/10/28 09:06:42;;;;;;;3.87;3.50;;;13.50;55.10;;;;;;5053966;28;20182;-82
2023/10/28 09:09:12;;;;;;;4.50;4.10;;;13.50;55.00;;;;;;5070885;28;20201;-82
2023/10/28 09:11:38;;;;;;;4.03;3.63;;;13.50;54.70;;;;;;5068063;28;20172;-82
2023/10/28 09:14:07;;;;;;;3.77;3.47;;;13.50;55.20;;;;;;5071207;28;20174;-83
2023/10/28 09:16:36;;;;;;;4.03;3.60;;;13.50;55.30;;;;;;5067919;28;20212;-82
2023/10/28 09:19:03;;;;;;;4.27;3.87;;;13.60;55.50;;;;;;5069305;28;20192;-82
2023/10/28 09:21:32;;;;;;;4.30;3.90;;;13.70;55.50;;;;;;5069532;28;20268;-82
2023/10/28 09:24:01;;;;;;;4.20;3.80;;;13.80;55.40;;;;;;5070350;28;20169;-82
2023/10/28 09:26:28;;;;;;;4.03;3.67;;;13.80;55.70;;;;;;5067228;28;20177;-82
2023/10/28 09:28:54;;;;;;;4.20;3.80;;;13.80;55.10;;;;;;5069049;28;20209;-82
2023/10/28 09:31:24;;;;;;;4.10;3.77;;;13.90;55.10;;;;;;5064677;28;20182;-83
2023/10/28 09:33:51;;;;;;;5.47;4.30;;;13.80;55.10;;;;;;5068242;28;20180;-82
2023/10/28 09:36:17;;;;;;;4.93;4.43;;;13.90;55.20;;;;;;5053090;28;20214;-83
2023/10/28 09:38:47;;;;;;;4.30;3.90;;;13.90;55.00;;;;;;5067337;28;20573;-82
2023/10/28 09:41:14;;;;;;;4.70;4.30;;;14.00;55.10;;;;;;5067609;28;20185;-82
2023/10/28 09:43:40;;;;;;;3.93;3.63;;;14.00;54.90;;;;;;5065316;28;20181;-82
2023/10/28 09:46:06;;;;;;;4.13;3.70;;;14.10;55.10;;;;;;5067356;28;20201;-82
2023/10/28 09:48:34;;;;;;;4.57;4.17;;;14.00;55.40;;;;;;5067897;28;20262;-82
2023/10/28 09:51:00;;;;;;;4.70;4.30;;;14.20;55.40;;;;;;5071427;28;20211;-81
2023/10/28 09:53:30;;;;;;;4.47;3.97;;;14.20;55.40;;;;;;5068909;28;20181;-82
2023/10/28 09:56:03;;;;;;;7.53;4.03;;;14.30;55.30;;;;;;5062612;28;20191;-82
2023/10/28 09:58:32;;;;;;;5.47;3.93;;;14.40;55.10;;;;;;5068364;28;20276;-82
2023/10/28 10:01:22;;;;;;;5.00;3.97;;;14.40;54.50;;;;;;5067428;28;20181;-82
2023/10/28 10:03:51;;;;;;;4.23;3.63;;;14.40;54.50;;;;;;5068371;28;20181;-81
2023/10/28 10:06:17;;;;;;;5.03;4.03;;;14.40;54.60;;;;;;5071037;28;20528;-82
2023/10/28 10:08:50;;;;;;;3.77;3.40;;;14.40;54.60;;;;;;5068520;28;20675;-81
2023/10/28 10:11:26;;;;;;;4.10;3.70;;;14.40;54.60;;;;;;5067009;28;20189;-81
2023/10/28 10:13:53;;;;;;;4.53;4.13;;;14.40;54.60;;;;;;5069902;28;20258;-82
2023/10/28 10:16:46;;;;;;;6.00;4.23;;;14.50;54.80;;;;;;5063237;28;20654;-81
2023/10/28 10:19:20;;;;;;;5.87;4.10;;;14.50;54.20;;;;;;5061356;28;20200;-81
2023/10/28 10:53:55;;;;;;;7.50;4.40;;;14.20;55.90;;;;;;5634613;23;20247;-81
2023/10/28 10:56:21;;;;;;;5.17;4.67;;;14.20;56.20;;;;;;4952523;28;20184;-82
2023/10/28 10:58:46;;;;;;;4.87;4.37;;;14.20;56.30;;;;;;4970693;28;20183;-83
2023/10/28 11:01:12;;;;;;;6.97;4.87;;;14.20;56.60;;;;;;4943472;28;20197;-83
2023/10/28 11:03:39;;;;;;;6.67;5.53;;;14.20;56.50;;;;;;4953819;28;20193;-82
2023/10/28 11:06:06;;;;;;;7.90;6.20;;;14.20;56.90;;;;;;4973322;28;20188;-83
2023/10/28 11:08:31;;;;;;;7.27;5.13;;;14.30;57.20;;;;;;4955779;28;20230;-82
2023/10/28 11:43:39;;;;;;;5.97;5.30;;;11.60;61.00;;;;;;5084646;27;1680881;-83
2023/10/28 11:46:05;;;;;;;5.63;5.00;;;13.40;61.90;;;;;;5124812;28;20263;-83
2023/10/28 11:48:33;;;;;;;6.07;5.20;;;13.60;61.40;;;;;;5127756;28;20179;-83
2023/10/28 11:51:00;;;;;;;5.83;5.17;;;13.90;60.80;;;;;;5108179;28;20193;-80
2023/10/28 11:53:27;;;;;;;5.63;4.93;;;14.00;60.00;;;;;;5109043;28;20179;-80
2023/10/28 11:55:57;;;;;;;6.97;6.13;;;14.10;59.70;;;;;;5105321;28;20193;-80
2023/10/28 11:58:26;;;;;;;5.80;5.30;;;14.20;59.60;;;;;;5121473;28;20207;-80
2023/10/28 12:00:56;;;;;;;7.40;6.13;;;14.20;59.00;;;;;;5124616;28;20585;-81
2023/10/28 12:03:23;;;;;;;8.17;6.17;;;14.20;59.00;;;;;;5110038;28;20532;-81
2023/10/28 12:05:49;;;;;;;6.30;5.53;;;14.30;59.10;;;;;;5107615;28;20179;-81
2023/10/28 12:08:15;;;;;;;8.50;6.07;;;14.30;59.00;;;;;;5109366;28;20663;-83
2023/10/28 12:10:43;;;;;;;7.23;6.47;;;14.40;59.30;;;;;;5103999;28;20586;-83
2023/10/28 12:13:14;;;;;;;6.93;6.23;;;14.40;59.10;;;;;;5106235;28;20548;-81
2023/10/28 12:15:40;;;;;;;7.40;6.60;;;14.40;59.10;;;;;;5103819;28;20186;-81
2023/10/28 12:18:09;;;;;;;7.30;6.43;;;14.50;59.20;;;;;;5108944;28;20178;-81
2023/10/28 12:20:35;;;;;;;7.10;6.40;;;14.40;59.10;;;;;;5123937;28;20208;-80
2023/10/28 12:23:01;;;;;;;9.93;7.07;;;14.50;59.20;;;;;;5107763;28;20187;-80
2023/10/28 12:25:26;;;;;;;12.40;10.57;;;14.50;59.40;;;;;;5125756;28;20179;-80
2023/10/28 12:27:52;;;;;;;11.07;9.03;;;14.50;59.40;;;;;;5105547;28;24211;-80
2023/10/28 12:30:18;;;;;;;7.50;6.77;;;14.50;59.40;;;;;;5094856;28;20168;-80
2023/10/28 12:32:46;;;;;;;6.30;5.57;;;14.60;59.30;;;;;;5121136;28;20233;-80
2023/10/28 12:35:13;;;;;;;6.47;5.80;;;14.50;59.20;;;;;;5107873;28;20186;-80
2023/10/28 12:37:39;;;;;;;6.13;5.53;;;14.50;59.20;;;;;;5106592;28;20183;-80
2023/10/28 12:40:06;;;;;;;5.90;5.40;;;14.40;59.20;;;;;;5105793;28;20636;-80
2023/10/28 12:42:34;;;;;;;8.33;6.07;;;14.50;59.30;;;;;;5106719;28;20223;-79
2023/10/28 12:45:00;;;;;;;5.73;5.23;;;14.50;59.20;;;;;;5093493;28;20232;-79
2023/10/28 12:47:25;;;;;;;6.60;5.97;;;14.40;59.10;;;;;;5092876;28;20282;-80
2023/10/28 12:49:51;;;;;;;6.20;5.60;;;14.40;59.20;;;;;;5108737;28;20196;-81
2023/10/28 12:52:17;;;;;;;7.20;6.50;;;14.40;59.30;;;;;;5109031;28;20212;-81
2023/10/28 12:54:46;;;;;;;6.50;5.90;;;14.40;59.40;;;;;;5093875;28;20255;-81
2023/10/28 12:57:12;;;;;;;7.97;6.50;;;14.40;59.40;;;;;;5113249;28;20188;-81
2023/10/28 12:59:38;;;;;;;6.73;6.03;;;14.40;59.50;;;;;;5111297;28;20211;-81
2023/10/28 13:02:04;;;;;;;6.57;5.97;;;14.40;59.70;;;;;;5111267;28;20649;-81
2023/10/28 13:04:30;;;;;;;7.57;6.73;;;14.40;59.80;;;;;;5089807;28;20183;-80
2023/10/28 13:06:56;;;;;;;7.33;6.63;;;14.40;59.70;;;;;;5090860;28;20172;-82
2023/10/28 13:09:23;;;;;;;6.93;6.33;;;14.40;60.20;;;;;;5091904;28;20575;-81
2023/10/28 13:11:48;;;;;;;7.20;6.50;;;14.40;59.70;;;;;;5108155;28;20669;-81
2023/10/28 13:14:18;;;;;;;7.13;6.37;;;14.40;59.90;;;;;;5109080;28;20191;-82
2023/10/28 13:16:44;;;;;;;8.47;7.57;;;14.40;59.90;;;;;;5091717;28;20240;-81
2023/10/28 13:19:10;;;;;;;8.23;7.23;;;14.40;59.90;;;;;;5085545;28;20184;-81
2023/10/28 13:21:35;;;;;;;8.53;7.23;;;14.30;59.90;;;;;;5108157;28;20180;-82
2023/10/28 13:24:01;;;;;;;8.20;7.40;;;14.30;60.00;;;;;;5087004;28;20568;-81
2023/10/28 13:26:26;;;;;;;8.93;7.90;;;14.30;60.10;;;;;;5110248;28;20179;-81
2023/10/28 13:28:53;;;;;;;9.07;8.20;;;14.30;60.10;;;;;;5093955;28;20188;-81
2023/10/28 13:31:19;;;;;;;10.10;9.10;;;14.20;60.20;;;;;;5109895;28;20254;-82
2023/10/28 13:33:44;;;;;;;10.03;9.03;;;14.20;60.30;;;;;;5078534;28;20589;-83
2023/10/28 13:36:11;;;;;;;10.20;9.10;;;14.20;60.40;;;;;;5111414;28;20211;-82
2023/10/28 13:38:36;;;;;;;10.10;9.00;;;14.10;60.30;;;;;;5087490;28;20238;-84
2023/10/28 13:41:03;;;;;;;10.97;9.93;;;14.10;60.40;;;;;;5085487;28;20180;-82
2023/10/28 13:43:29;;;;;;;11.37;10.20;;;14.10;60.60;;;;;;5109772;28;20250;-82
2023/10/28 13:45:59;;;;;;;11.30;9.57;;;14.00;60.60;;;;;;5093394;28;20562;-82
2023/10/28 13:48:25;;;;;;;11.40;10.30;;;14.00;60.70;;;;;;5094492;28;20172;-83